sensor_id;sensor_type;location;lat;lon;timestamp;temperature;humidity
7530;DHT22;3806;52.270;10.544;2022-07-22T00:01:13;20.80;99.90
7530;DHT22;3806;52.270;10.544;2022-07-22T00:03:39;20.70;99.90
7530;DHT22;3806;52.270;10.544;2022-07-22T00:06:05;20.70;99.90
7530;DHT22;3806;52.270;10.544;2022-07-22T00:08:31;20.70;99.90
7530;DHT22;3806;52.270;10.544;2022-07-22T00:10:56;20.70;99.90
7530;DHT22;3806;52.270;10.544;2022-07-22T00:13:22;20.70;99.90
7530;DHT22;3806;52.270;10.544;2022-07-22T00:15:48;20.70;99.90
7530;DHT22;3806;52.270;10.544;2022-07-22T00:18:14;20.70;99.90
7530;DHT22;3806;52.270;10.544;2022-07-22T00:20:40;20.70;99.90
7530;DHT22;3806;52.270;10.544;2022-07-22T00:23:05;20.60;99.90
7530;DHT22;3806;52.270;10.544;2022-07-22T00:25:31;20.70;99.90
7530;DHT22;3806;52.270;10.544;2022-07-22T00:27:57;20.70;99.90
7530;DHT22;3806;52.270;10.544;2022-07-22T00:30:22;20.60;99.90
7530;DHT22;3806;52.270;10.544;2022-07-22T00:32:48;20.60;99.90
7530;DHT22;3806;52.270;10.544;2022-07-22T00:35:13;20.60;99.90
7530;DHT22;3806;52.270;10.544;2022-07-22T00:37:39;20.60;99.90
7530;DHT22;3806;52.270;10.544;2022-07-22T00:40:05;20.60;99.90
7530;DHT22;3806;52.270;10.544;2022-07-22T00:42:31;20.60;99.90
7530;DHT22;3806;52.270;10.544;2022-07-22T00:44:57;20.60;99.90
7530;DHT22;3806;52.270;10.544;2022-07-22T00:47:23;20.60;99.90
7530;DHT22;3806;52.270;10.544;2022-07-22T00:49:49;20.60;99.90
7530;DHT22;3806;52.270;10.544;2022-07-22T00:52:14;20.60;99.90
7530;DHT22;3806;52.270;10.544;2022-07-22T00:54:40;20.70;99.90
7530;DHT22;3806;52.270;10.544;2022-07-22T00:57:06;20.60;99.90
7530;DHT22;3806;52.270;10.544;2022-07-22T00:59:31;20.70;99.90
7530;DHT22;3806;52.270;10.544;2022-07-22T01:01:57;20.70;99.90
7530;DHT22;3806;52.270;10.544;2022-07-22T01:04:22;20.70;99.90
7530;DHT22;3806;52.270;10.544;2022-07-22T01:06:48;20.70;99.90
7530;DHT22;3806;52.270;10.544;2022-07-22T01:09:14;20.70;99.90
7530;DHT22;3806;52.270;10.544;2022-07-22T01:11:40;20.60;99.90
7530;DHT22;3806;52.270;10.544;2022-07-22T01:14:06;20.60;99.90
7530;DHT22;3806;52.270;10.544;2022-07-22T01:16:32;20.60;99.90
7530;DHT22;3806;52.270;10.544;2022-07-22T01:18:57;20.60;99.90
7530;DHT22;3806;52.270;10.544;2022-07-22T01:21:23;20.60;99.90
7530;DHT22;3806;52.270;10.544;2022-07-22T01:23:49;20.60;99.90
7530;DHT22;3806;52.270;10.544;2022-07-22T01:26:15;20.60;99.90
7530;DHT22;3806;52.270;10.544;2022-07-22T01:28:41;20.60;99.90
7530;DHT22;3806;52.270;10.544;2022-07-22T01:31:07;20.60;99.90
7530;DHT22;3806;52.270;10.544;2022-07-22T01:33:33;20.60;99.90
7530;DHT22;3806;52.270;10.544;2022-07-22T01:35:59;20.60;99.90
7530;DHT22;3806;52.270;10.544;2022-07-22T01:38:25;20.60;99.90
7530;DHT22;3806;52.270;10.544;2022-07-22T01:40:51;20.50;99.90
7530;DHT22;3806;52.270;10.544;2022-07-22T01:43:17;20.50;99.90
7530;DHT22;3806;52.270;10.544;2022-07-22T01:45:48;20.50;99.90
7530;DHT22;3806;52.270;10.544;2022-07-22T01:48:15;20.50;99.90
7530;DHT22;3806;52.270;10.544;2022-07-22T01:50:41;20.50;99.90
7530;DHT22;3806;52.270;10.544;2022-07-22T01:53:07;20.40;99.90
7530;DHT22;3806;52.270;10.544;2022-07-22T01:55:33;20.40;99.90
7530;DHT22;3806;52.270;10.544;2022-07-22T01:57:59;20.40;99.90
7530;DHT22;3806;52.270;10.544;2022-07-22T02:00:24;20.40;99.90
7530;DHT22;3806;52.270;10.544;2022-07-22T02:02:50;20.40;99.90
7530;DHT22;3806;52.270;10.544;2022-07-22T02:05:16;20.40;99.90
7530;DHT22;3806;52.270;10.544;2022-07-22T02:07:42;20.40;99.90
7530;DHT22;3806;52.270;10.544;2022-07-22T02:10:08;20.40;99.90
7530;DHT22;3806;52.270;10.544;2022-07-22T02:12:34;20.40;99.90
7530;DHT22;3806;52.270;10.544;2022-07-22T02:14:59;20.40;99.90
7530;DHT22;3806;52.270;10.544;2022-07-22T02:17:25;20.40;99.90
7530;DHT22;3806;52.270;10.544;2022-07-22T02:19:51;20.40;99.90
7530;DHT22;3806;52.270;10.544;2022-07-22T02:22:17;20.50;99.90
7530;DHT22;3806;52.270;10.544;2022-07-22T02:24:42;20.50;99.90
7530;DHT22;3806;52.270;10.544;2022-07-22T02:27:08;20.50;99.90
7530;DHT22;3806;52.270;10.544;2022-07-22T02:29:34;20.50;99.90
7530;DHT22;3806;52.270;10.544;2022-07-22T02:32:00;20.50;99.90
7530;DHT22;3806;52.270;10.544;2022-07-22T02:34:26;20.40;99.90
7530;DHT22;3806;52.270;10.544;2022-07-22T02:36:52;20.50;99.90
7530;DHT22;3806;52.270;10.544;2022-07-22T02:39:18;20.50;99.90
7530;DHT22;3806;52.270;10.544;2022-07-22T02:41:43;20.50;99.90
7530;DHT22;3806;52.270;10.544;2022-07-22T02:44:09;20.60;99.90
7530;DHT22;3806;52.270;10.544;2022-07-22T02:46:35;20.50;99.90
7530;DHT22;3806;52.270;10.544;2022-07-22T02:49:00;20.50;99.90
7530;DHT22;3806;52.270;10.544;2022-07-22T02:51:26;20.40;99.90
7530;DHT22;3806;52.270;10.544;2022-07-22T02:53:52;20.40;99.90
7530;DHT22;3806;52.270;10.544;2022-07-22T02:56:17;20.30;99.90
7530;DHT22;3806;52.270;10.544;2022-07-22T02:58:45;20.30;99.90
7530;DHT22;3806;52.270;10.544;2022-07-22T03:01:12;20.30;99.90
7530;DHT22;3806;52.270;10.544;2022-07-22T03:03:37;20.30;99.90
7530;DHT22;3806;52.270;10.544;2022-07-22T03:06:03;20.30;99.90
7530;DHT22;3806;52.270;10.544;2022-07-22T03:08:29;20.30;99.90
7530;DHT22;3806;52.270;10.544;2022-07-22T03:10:55;20.30;99.90
7530;DHT22;3806;52.270;10.544;2022-07-22T03:13:20;20.40;99.90
7530;DHT22;3806;52.270;10.544;2022-07-22T03:15:46;20.40;99.90
7530;DHT22;3806;52.270;10.544;2022-07-22T03:18:12;20.40;99.90
7530;DHT22;3806;52.270;10.544;2022-07-22T03:20:38;20.40;99.90
7530;DHT22;3806;52.270;10.544;2022-07-22T03:23:04;20.40;99.90
7530;DHT22;3806;52.270;10.544;2022-07-22T03:25:29;20.40;99.90
7530;DHT22;3806;52.270;10.544;2022-07-22T03:27:56;20.40;99.90
7530;DHT22;3806;52.270;10.544;2022-07-22T03:30:22;20.40;99.90
7530;DHT22;3806;52.270;10.544;2022-07-22T03:32:48;20.30;99.90
7530;DHT22;3806;52.270;10.544;2022-07-22T03:35:15;20.30;99.90
7530;DHT22;3806;52.270;10.544;2022-07-22T03:37:41;20.30;99.90
7530;DHT22;3806;52.270;10.544;2022-07-22T03:40:08;20.20;99.90
7530;DHT22;3806;52.270;10.544;2022-07-22T03:42:34;20.20;99.90
7530;DHT22;3806;52.270;10.544;2022-07-22T03:44:59;20.20;99.90
7530;DHT22;3806;52.270;10.544;2022-07-22T03:47:25;20.20;99.90
7530;DHT22;3806;52.270;10.544;2022-07-22T03:49:51;20.20;99.90
7530;DHT22;3806;52.270;10.544;2022-07-22T03:52:17;20.20;99.90
7530;DHT22;3806;52.270;10.544;2022-07-22T03:54:42;20.20;99.90
7530;DHT22;3806;52.270;10.544;2022-07-22T03:57:08;20.10;99.90
7530;DHT22;3806;52.270;10.544;2022-07-22T03:59:35;20.10;99.90
7530;DHT22;3806;52.270;10.544;2022-07-22T04:02:01;20.10;99.90
7530;DHT22;3806;52.270;10.544;2022-07-22T04:04:27;20.10;99.90
7530;DHT22;3806;52.270;10.544;2022-07-22T04:06:53;20.10;99.90
7530;DHT22;3806;52.270;10.544;2022-07-22T04:09:19;20.10;99.90
7530;DHT22;3806;52.270;10.544;2022-07-22T04:11:45;20.10;99.90
7530;DHT22;3806;52.270;10.544;2022-07-22T04:14:10;20.10;99.90
7530;DHT22;3806;52.270;10.544;2022-07-22T04:16:36;20.10;99.90
7530;DHT22;3806;52.270;10.544;2022-07-22T04:19:03;20.10;99.90
7530;DHT22;3806;52.270;10.544;2022-07-22T04:21:29;20.10;99.90
7530;DHT22;3806;52.270;10.544;2022-07-22T04:23:55;20.10;99.90
7530;DHT22;3806;52.270;10.544;2022-07-22T04:26:20;20.10;99.90
7530;DHT22;3806;52.270;10.544;2022-07-22T04:28:46;20.10;99.90
7530;DHT22;3806;52.270;10.544;2022-07-22T04:31:12;20.00;99.90
7530;DHT22;3806;52.270;10.544;2022-07-22T04:33:37;20.00;99.90
7530;DHT22;3806;52.270;10.544;2022-07-22T04:36:03;20.00;99.90
7530;DHT22;3806;52.270;10.544;2022-07-22T04:38:29;19.90;99.90
7530;DHT22;3806;52.270;10.544;2022-07-22T04:40:55;19.80;99.90
7530;DHT22;3806;52.270;10.544;2022-07-22T04:43:21;19.80;99.90
7530;DHT22;3806;52.270;10.544;2022-07-22T04:45:46;19.80;99.90
7530;DHT22;3806;52.270;10.544;2022-07-22T04:48:12;19.80;99.90
7530;DHT22;3806;52.270;10.544;2022-07-22T04:50:38;19.70;99.90
7530;DHT22;3806;52.270;10.544;2022-07-22T04:53:04;19.70;99.90
7530;DHT22;3806;52.270;10.544;2022-07-22T04:55:29;19.70;99.90
7530;DHT22;3806;52.270;10.544;2022-07-22T04:57:55;19.70;99.90
7530;DHT22;3806;52.270;10.544;2022-07-22T05:00:21;19.70;99.90
7530;DHT22;3806;52.270;10.544;2022-07-22T05:02:46;19.70;99.90
7530;DHT22;3806;52.270;10.544;2022-07-22T05:05:12;19.70;99.90
7530;DHT22;3806;52.270;10.544;2022-07-22T05:07:38;19.70;99.90
7530;DHT22;3806;52.270;10.544;2022-07-22T05:10:04;19.80;99.90
7530;DHT22;3806;52.270;10.544;2022-07-22T05:12:30;19.80;99.90
7530;DHT22;3806;52.270;10.544;2022-07-22T05:14:55;19.90;99.90
7530;DHT22;3806;52.270;10.544;2022-07-22T05:17:21;19.80;99.90
7530;DHT22;3806;52.270;10.544;2022-07-22T05:19:46;19.80;99.90
7530;DHT22;3806;52.270;10.544;2022-07-22T05:22:12;19.90;99.90
7530;DHT22;3806;52.270;10.544;2022-07-22T05:24:38;19.90;99.90
7530;DHT22;3806;52.270;10.544;2022-07-22T05:27:03;19.90;99.90
7530;DHT22;3806;52.270;10.544;2022-07-22T05:29:29;20.00;99.90
7530;DHT22;3806;52.270;10.544;2022-07-22T05:31:55;20.00;99.90
7530;DHT22;3806;52.270;10.544;2022-07-22T05:34:20;20.00;99.90
7530;DHT22;3806;52.270;10.544;2022-07-22T05:36:46;20.00;99.90
7530;DHT22;3806;52.270;10.544;2022-07-22T05:39:11;19.90;99.90
7530;DHT22;3806;52.270;10.544;2022-07-22T05:41:37;19.90;99.90
7530;DHT22;3806;52.270;10.544;2022-07-22T05:44:04;19.90;99.90
7530;DHT22;3806;52.270;10.544;2022-07-22T05:46:30;19.80;99.90
7530;DHT22;3806;52.270;10.544;2022-07-22T05:48:55;19.80;99.90
7530;DHT22;3806;52.270;10.544;2022-07-22T05:51:21;19.80;99.90
7530;DHT22;3806;52.270;10.544;2022-07-22T05:53:47;19.80;99.90
7530;DHT22;3806;52.270;10.544;2022-07-22T05:56:13;19.70;99.90
7530;DHT22;3806;52.270;10.544;2022-07-22T05:58:40;19.60;99.90
7530;DHT22;3806;52.270;10.544;2022-07-22T06:01:06;19.60;99.90
7530;DHT22;3806;52.270;10.544;2022-07-22T06:03:32;19.70;99.90
7530;DHT22;3806;52.270;10.544;2022-07-22T06:05:58;19.70;99.90
7530;DHT22;3806;52.270;10.544;2022-07-22T06:08:24;19.70;99.90
7530;DHT22;3806;52.270;10.544;2022-07-22T06:10:50;19.70;99.90
7530;DHT22;3806;52.270;10.544;2022-07-22T06:13:15;19.70;99.90
7530;DHT22;3806;52.270;10.544;2022-07-22T06:15:41;19.70;99.90
7530;DHT22;3806;52.270;10.544;2022-07-22T06:18:06;19.70;99.90
7530;DHT22;3806;52.270;10.544;2022-07-22T06:20:32;19.80;99.90
7530;DHT22;3806;52.270;10.544;2022-07-22T06:22:58;19.70;99.90
7530;DHT22;3806;52.270;10.544;2022-07-22T06:25:44;19.70;99.90
7530;DHT22;3806;52.270;10.544;2022-07-22T06:28:10;19.70;99.90
7530;DHT22;3806;52.270;10.544;2022-07-22T06:30:36;19.70;99.90
7530;DHT22;3806;52.270;10.544;2022-07-22T06:33:02;19.70;99.90
7530;DHT22;3806;52.270;10.544;2022-07-22T06:35:28;19.70;99.90
7530;DHT22;3806;52.270;10.544;2022-07-22T06:37:54;19.80;99.90
7530;DHT22;3806;52.270;10.544;2022-07-22T06:40:19;19.70;99.90
7530;DHT22;3806;52.270;10.544;2022-07-22T06:42:45;19.70;99.90
7530;DHT22;3806;52.270;10.544;2022-07-22T06:45:11;19.60;99.90
7530;DHT22;3806;52.270;10.544;2022-07-22T06:47:37;19.60;99.90
7530;DHT22;3806;52.270;10.544;2022-07-22T06:50:06;19.60;99.90
7530;DHT22;3806;52.270;10.544;2022-07-22T06:52:33;19.60;99.90
7530;DHT22;3806;52.270;10.544;2022-07-22T06:54:59;19.60;99.90
7530;DHT22;3806;52.270;10.544;2022-07-22T06:57:24;19.60;99.90
7530;DHT22;3806;52.270;10.544;2022-07-22T06:59:50;19.60;99.90
7530;DHT22;3806;52.270;10.544;2022-07-22T07:02:16;19.60;99.90
7530;DHT22;3806;52.270;10.544;2022-07-22T07:04:42;19.70;99.90
7530;DHT22;3806;52.270;10.544;2022-07-22T07:07:08;19.70;99.90
7530;DHT22;3806;52.270;10.544;2022-07-22T07:09:34;19.70;99.90
7530;DHT22;3806;52.270;10.544;2022-07-22T07:12:00;19.80;99.90
7530;DHT22;3806;52.270;10.544;2022-07-22T07:14:26;19.80;99.90
7530;DHT22;3806;52.270;10.544;2022-07-22T07:16:52;19.80;99.90
7530;DHT22;3806;52.270;10.544;2022-07-22T07:19:18;19.80;99.90
7530;DHT22;3806;52.270;10.544;2022-07-22T07:21:45;19.80;99.90
7530;DHT22;3806;52.270;10.544;2022-07-22T07:24:11;19.80;99.90
7530;DHT22;3806;52.270;10.544;2022-07-22T07:26:37;19.80;99.90
7530;DHT22;3806;52.270;10.544;2022-07-22T07:29:02;19.80;99.90
7530;DHT22;3806;52.270;10.544;2022-07-22T07:31:28;19.90;99.90
7530;DHT22;3806;52.270;10.544;2022-07-22T07:33:54;19.90;99.90
7530;DHT22;3806;52.270;10.544;2022-07-22T07:36:20;19.80;99.90
7530;DHT22;3806;52.270;10.544;2022-07-22T07:38:45;19.90;99.90
7530;DHT22;3806;52.270;10.544;2022-07-22T07:41:11;19.90;99.90
7530;DHT22;3806;52.270;10.544;2022-07-22T07:43:37;19.90;99.90
7530;DHT22;3806;52.270;10.544;2022-07-22T07:46:02;19.90;99.90
7530;DHT22;3806;52.270;10.544;2022-07-22T07:48:28;19.90;99.90
7530;DHT22;3806;52.270;10.544;2022-07-22T07:50:53;19.90;99.90
7530;DHT22;3806;52.270;10.544;2022-07-22T07:53:19;19.90;99.90
7530;DHT22;3806;52.270;10.544;2022-07-22T07:55:45;20.00;99.90
7530;DHT22;3806;52.270;10.544;2022-07-22T07:58:11;20.00;99.90
7530;DHT22;3806;52.270;10.544;2022-07-22T08:00:37;20.10;99.90
7530;DHT22;3806;52.270;10.544;2022-07-22T08:03:04;20.10;99.90
7530;DHT22;3806;52.270;10.544;2022-07-22T08:05:30;20.20;99.90
7530;DHT22;3806;52.270;10.544;2022-07-22T08:07:56;20.30;99.90
7530;DHT22;3806;52.270;10.544;2022-07-22T08:10:22;20.50;99.90
7530;DHT22;3806;52.270;10.544;2022-07-22T08:12:49;20.70;99.90
7530;DHT22;3806;52.270;10.544;2022-07-22T08:15:15;20.90;99.90
7530;DHT22;3806;52.270;10.544;2022-07-22T08:17:41;21.00;99.50
7530;DHT22;3806;52.270;10.544;2022-07-22T08:20:07;21.10;99.10
7530;DHT22;3806;52.270;10.544;2022-07-22T08:22:33;21.20;98.60
7530;DHT22;3806;52.270;10.544;2022-07-22T08:24:59;21.20;98.20
7530;DHT22;3806;52.270;10.544;2022-07-22T08:27:25;21.30;98.00
7530;DHT22;3806;52.270;10.544;2022-07-22T08:29:50;21.30;97.70
7530;DHT22;3806;52.270;10.544;2022-07-22T08:32:16;21.40;97.40
7530;DHT22;3806;52.270;10.544;2022-07-22T08:34:42;21.50;97.10
7530;DHT22;3806;52.270;10.544;2022-07-22T08:37:07;21.60;96.90
7530;DHT22;3806;52.270;10.544;2022-07-22T08:39:33;21.70;96.60
7530;DHT22;3806;52.270;10.544;2022-07-22T08:41:59;21.70;96.10
7530;DHT22;3806;52.270;10.544;2022-07-22T08:44:32;21.80;95.90
7530;DHT22;3806;52.270;10.544;2022-07-22T08:47:00;21.90;95.70
7530;DHT22;3806;52.270;10.544;2022-07-22T08:49:26;22.00;95.40
7530;DHT22;3806;52.270;10.544;2022-07-22T08:51:52;22.00;95.20
7530;DHT22;3806;52.270;10.544;2022-07-22T08:54:19;21.90;94.80
7530;DHT22;3806;52.270;10.544;2022-07-22T08:56:51;21.90;94.70
7530;DHT22;3806;52.270;10.544;2022-07-22T08:59:17;22.00;94.70
7530;DHT22;3806;52.270;10.544;2022-07-22T09:02:08;22.00;94.60
7530;DHT22;3806;52.270;10.544;2022-07-22T09:04:50;22.20;94.50
7530;DHT22;3806;52.270;10.544;2022-07-22T09:07:25;22.40;93.90
7530;DHT22;3806;52.270;10.544;2022-07-22T09:09:51;22.50;93.40
7530;DHT22;3806;52.270;10.544;2022-07-22T09:12:17;22.50;93.10
7530;DHT22;3806;52.270;10.544;2022-07-22T09:14:47;22.50;92.80
7530;DHT22;3806;52.270;10.544;2022-07-22T09:17:33;22.60;92.80
7530;DHT22;3806;52.270;10.544;2022-07-22T09:20:16;22.50;92.80
7530;DHT22;3806;52.270;10.544;2022-07-22T09:22:44;22.40;92.80
7530;DHT22;3806;52.270;10.544;2022-07-22T09:25:23;22.30;93.10
7530;DHT22;3806;52.270;10.544;2022-07-22T09:27:50;22.20;92.70
7530;DHT22;3806;52.270;10.544;2022-07-22T09:30:23;22.10;92.40
7530;DHT22;3806;52.270;10.544;2022-07-22T09:32:50;22.00;92.40
7530;DHT22;3806;52.270;10.544;2022-07-22T09:35:15;22.00;92.50
7530;DHT22;3806;52.270;10.544;2022-07-22T09:37:49;21.90;92.60
7530;DHT22;3806;52.270;10.544;2022-07-22T09:40:18;21.80;92.70
7530;DHT22;3806;52.270;10.544;2022-07-22T09:43:06;21.80;93.00
7530;DHT22;3806;52.270;10.544;2022-07-22T09:45:32;21.80;93.20
7530;DHT22;3806;52.270;10.544;2022-07-22T09:47:59;21.80;93.30
7530;DHT22;3806;52.270;10.544;2022-07-22T09:50:27;21.80;93.30
7530;DHT22;3806;52.270;10.544;2022-07-22T09:52:55;21.80;93.20
7530;DHT22;3806;52.270;10.544;2022-07-22T09:55:23;21.80;93.30
7530;DHT22;3806;52.270;10.544;2022-07-22T09:57:50;21.90;93.50
7530;DHT22;3806;52.270;10.544;2022-07-22T10:00:18;21.70;93.50
7530;DHT22;3806;52.270;10.544;2022-07-22T10:02:48;21.70;93.60
7530;DHT22;3806;52.270;10.544;2022-07-22T10:05:16;21.60;93.70
7530;DHT22;3806;52.270;10.544;2022-07-22T10:07:43;21.50;93.90
7530;DHT22;3806;52.270;10.544;2022-07-22T10:10:12;21.40;94.20
7530;DHT22;3806;52.270;10.544;2022-07-22T10:12:38;21.40;94.50
7530;DHT22;3806;52.270;10.544;2022-07-22T10:15:05;21.40;94.60
7530;DHT22;3806;52.270;10.544;2022-07-22T10:17:34;21.40;94.60
7530;DHT22;3806;52.270;10.544;2022-07-22T10:20:05;21.40;94.70
7530;DHT22;3806;52.270;10.544;2022-07-22T10:25:11;21.50;94.80
7530;DHT22;3806;52.270;10.544;2022-07-22T10:28:01;21.70;94.80
7530;DHT22;3806;52.270;10.544;2022-07-22T10:30:30;21.80;94.60
7530;DHT22;3806;52.270;10.544;2022-07-22T10:33:13;21.90;94.30
7530;DHT22;3806;52.270;10.544;2022-07-22T10:35:56;22.00;93.90
7530;DHT22;3806;52.270;10.544;2022-07-22T10:38:23;22.10;93.60
7530;DHT22;3806;52.270;10.544;2022-07-22T10:40:52;22.30;93.30
7530;DHT22;3806;52.270;10.544;2022-07-22T10:43:28;22.40;93.00
7530;DHT22;3806;52.270;10.544;2022-07-22T10:46:02;22.40;92.60
7530;DHT22;3806;52.270;10.544;2022-07-22T10:58:45;22.50;92.00
7530;DHT22;3806;52.270;10.544;2022-07-22T11:01:14;22.60;92.00
7530;DHT22;3806;52.270;10.544;2022-07-22T11:03:42;22.60;92.00
7530;DHT22;3806;52.270;10.544;2022-07-22T11:08:50;22.70;91.60
7530;DHT22;3806;52.270;10.544;2022-07-22T11:11:17;22.70;91.50
7530;DHT22;3806;52.270;10.544;2022-07-22T11:13:43;22.70;91.30
7530;DHT22;3806;52.270;10.544;2022-07-22T11:16:27;22.60;91.20
7530;DHT22;3806;52.270;10.544;2022-07-22T11:18:56;22.70;91.20
7530;DHT22;3806;52.270;10.544;2022-07-22T11:21:25;22.70;90.80
7530;DHT22;3806;52.270;10.544;2022-07-22T11:23:53;22.70;90.50
7530;DHT22;3806;52.270;10.544;2022-07-22T11:26:40;22.70;90.30
7530;DHT22;3806;52.270;10.544;2022-07-22T11:29:06;22.70;90.30
7530;DHT22;3806;52.270;10.544;2022-07-22T11:31:32;22.80;90.30
7530;DHT22;3806;52.270;10.544;2022-07-22T11:36:33;22.90;90.60
7530;DHT22;3806;52.270;10.544;2022-07-22T11:38:59;22.90;90.70
7530;DHT22;3806;52.270;10.544;2022-07-22T11:41:24;22.90;90.80
7530;DHT22;3806;52.270;10.544;2022-07-22T11:43:53;22.90;90.70
7530;DHT22;3806;52.270;10.544;2022-07-22T11:46:19;22.90;90.70
7530;DHT22;3806;52.270;10.544;2022-07-22T11:48:44;22.80;90.70
7530;DHT22;3806;52.270;10.544;2022-07-22T11:51:12;22.80;90.70
7530;DHT22;3806;52.270;10.544;2022-07-22T11:53:38;22.80;90.70
7530;DHT22;3806;52.270;10.544;2022-07-22T11:56:06;22.70;90.60
7530;DHT22;3806;52.270;10.544;2022-07-22T11:58:35;22.70;90.60
7530;DHT22;3806;52.270;10.544;2022-07-22T12:01:01;22.60;90.60
7530;DHT22;3806;52.270;10.544;2022-07-22T12:03:28;22.50;90.60
7530;DHT22;3806;52.270;10.544;2022-07-22T12:05:54;22.50;90.60
7530;DHT22;3806;52.270;10.544;2022-07-22T12:08:21;22.50;90.50
7530;DHT22;3806;52.270;10.544;2022-07-22T12:10:46;22.60;90.50
7530;DHT22;3806;52.270;10.544;2022-07-22T12:13:12;22.60;90.10
7530;DHT22;3806;52.270;10.544;2022-07-22T12:15:41;22.70;89.80
7530;DHT22;3806;52.270;10.544;2022-07-22T12:20:46;22.90;89.00
7530;DHT22;3806;52.270;10.544;2022-07-22T12:23:13;22.90;88.20
7530;DHT22;3806;52.270;10.544;2022-07-22T12:25:57;22.90;87.60
7530;DHT22;3806;52.270;10.544;2022-07-22T12:28:24;22.90;87.30
7530;DHT22;3806;52.270;10.544;2022-07-22T12:30:51;23.00;87.50
7530;DHT22;3806;52.270;10.544;2022-07-22T12:33:18;23.00;87.70
7530;DHT22;3806;52.270;10.544;2022-07-22T12:35:44;23.10;88.00
7530;DHT22;3806;52.270;10.544;2022-07-22T12:38:10;23.10;88.00
7530;DHT22;3806;52.270;10.544;2022-07-22T12:40:37;23.10;88.20
7530;DHT22;3806;52.270;10.544;2022-07-22T12:43:05;23.10;89.00
7530;DHT22;3806;52.270;10.544;2022-07-22T12:45:36;23.20;88.40
7530;DHT22;3806;52.270;10.544;2022-07-22T12:50:43;23.30;88.20
7530;DHT22;3806;52.270;10.544;2022-07-22T12:53:11;23.30;88.10
7530;DHT22;3806;52.270;10.544;2022-07-22T12:55:39;23.30;87.90
7530;DHT22;3806;52.270;10.544;2022-07-22T12:58:06;23.30;87.80
7530;DHT22;3806;52.270;10.544;2022-07-22T13:00:37;23.30;87.40
7530;DHT22;3806;52.270;10.544;2022-07-22T13:03:04;23.30;87.30
7530;DHT22;3806;52.270;10.544;2022-07-22T13:05:30;23.30;87.30
7530;DHT22;3806;52.270;10.544;2022-07-22T13:07:56;23.30;87.40
7530;DHT22;3806;52.270;10.544;2022-07-22T13:10:23;23.30;87.40
7530;DHT22;3806;52.270;10.544;2022-07-22T13:12:50;23.30;87.50
7530;DHT22;3806;52.270;10.544;2022-07-22T13:15:16;23.30;87.30
7530;DHT22;3806;52.270;10.544;2022-07-22T13:17:42;23.30;87.80
7530;DHT22;3806;52.270;10.544;2022-07-22T13:20:10;23.20;87.00
7530;DHT22;3806;52.270;10.544;2022-07-22T13:22:36;23.20;87.10
7530;DHT22;3806;52.270;10.544;2022-07-22T13:25:02;23.20;87.00
7530;DHT22;3806;52.270;10.544;2022-07-22T13:27:28;23.10;86.90
7530;DHT22;3806;52.270;10.544;2022-07-22T13:29:53;23.00;87.50
7530;DHT22;3806;52.270;10.544;2022-07-22T13:32:19;23.00;87.20
7530;DHT22;3806;52.270;10.544;2022-07-22T13:34:44;23.00;87.40
7530;DHT22;3806;52.270;10.544;2022-07-22T13:37:10;23.00;87.50
7530;DHT22;3806;52.270;10.544;2022-07-22T13:39:36;23.00;87.50
7530;DHT22;3806;52.270;10.544;2022-07-22T13:42:02;23.00;87.20
7530;DHT22;3806;52.270;10.544;2022-07-22T13:44:27;23.00;87.10
7530;DHT22;3806;52.270;10.544;2022-07-22T13:46:53;23.00;87.20
7530;DHT22;3806;52.270;10.544;2022-07-22T13:49:21;23.00;87.30
7530;DHT22;3806;52.270;10.544;2022-07-22T13:51:47;23.00;87.20
7530;DHT22;3806;52.270;10.544;2022-07-22T13:54:13;23.10;86.90
7530;DHT22;3806;52.270;10.544;2022-07-22T13:56:39;23.20;86.90
7530;DHT22;3806;52.270;10.544;2022-07-22T13:59:04;23.20;86.60
7530;DHT22;3806;52.270;10.544;2022-07-22T14:01:30;23.30;86.50
7530;DHT22;3806;52.270;10.544;2022-07-22T14:03:57;23.30;86.00
7530;DHT22;3806;52.270;10.544;2022-07-22T14:06:22;23.30;85.80
7530;DHT22;3806;52.270;10.544;2022-07-22T14:08:48;23.30;85.80
7530;DHT22;3806;52.270;10.544;2022-07-22T14:11:13;23.30;85.60
7530;DHT22;3806;52.270;10.544;2022-07-22T14:13:39;23.30;85.60
7530;DHT22;3806;52.270;10.544;2022-07-22T14:16:05;23.30;85.40
7530;DHT22;3806;52.270;10.544;2022-07-22T14:18:49;23.30;85.10
7530;DHT22;3806;52.270;10.544;2022-07-22T14:21:15;23.40;84.90
7530;DHT22;3806;52.270;10.544;2022-07-22T14:23:40;23.40;84.80
7530;DHT22;3806;52.270;10.544;2022-07-22T14:26:06;23.40;84.60
7530;DHT22;3806;52.270;10.544;2022-07-22T14:28:31;23.40;84.70
7530;DHT22;3806;52.270;10.544;2022-07-22T14:30:59;23.40;84.70
7530;DHT22;3806;52.270;10.544;2022-07-22T14:33:25;23.30;84.60
7530;DHT22;3806;52.270;10.544;2022-07-22T14:35:50;23.30;84.50
7530;DHT22;3806;52.270;10.544;2022-07-22T14:38:16;23.30;84.50
7530;DHT22;3806;52.270;10.544;2022-07-22T14:40:43;23.30;84.50
7530;DHT22;3806;52.270;10.544;2022-07-22T14:43:09;23.30;84.70
7530;DHT22;3806;52.270;10.544;2022-07-22T14:45:34;23.30;84.40
7530;DHT22;3806;52.270;10.544;2022-07-22T14:48:00;23.30;84.40
7530;DHT22;3806;52.270;10.544;2022-07-22T14:50:25;23.30;84.40
7530;DHT22;3806;52.270;10.544;2022-07-22T14:52:51;23.30;84.50
7530;DHT22;3806;52.270;10.544;2022-07-22T14:55:16;23.30;84.40
7530;DHT22;3806;52.270;10.544;2022-07-22T14:57:42;23.40;84.70
7530;DHT22;3806;52.270;10.544;2022-07-22T15:00:08;23.40;84.60
7530;DHT22;3806;52.270;10.544;2022-07-22T15:02:34;23.30;84.20
7530;DHT22;3806;52.270;10.544;2022-07-22T15:05:00;23.20;84.20
7530;DHT22;3806;52.270;10.544;2022-07-22T15:07:25;23.20;84.30
7530;DHT22;3806;52.270;10.544;2022-07-22T15:09:51;23.10;84.40
7530;DHT22;3806;52.270;10.544;2022-07-22T15:12:17;23.00;84.70
7530;DHT22;3806;52.270;10.544;2022-07-22T15:14:42;22.90;85.10
7530;DHT22;3806;52.270;10.544;2022-07-22T15:17:08;22.90;85.40
7530;DHT22;3806;52.270;10.544;2022-07-22T15:19:34;22.90;85.40
7530;DHT22;3806;52.270;10.544;2022-07-22T15:21:59;22.90;85.20
7530;DHT22;3806;52.270;10.544;2022-07-22T15:24:25;22.80;85.20
7530;DHT22;3806;52.270;10.544;2022-07-22T15:26:51;22.80;85.20
7530;DHT22;3806;52.270;10.544;2022-07-22T15:29:17;22.80;85.20
7530;DHT22;3806;52.270;10.544;2022-07-22T15:31:43;22.80;85.30
7530;DHT22;3806;52.270;10.544;2022-07-22T15:34:08;22.90;85.40
7530;DHT22;3806;52.270;10.544;2022-07-22T15:36:34;23.00;85.30
7530;DHT22;3806;52.270;10.544;2022-07-22T15:39:00;23.00;85.10
7530;DHT22;3806;52.270;10.544;2022-07-22T15:41:25;23.10;84.80
7530;DHT22;3806;52.270;10.544;2022-07-22T15:43:51;23.10;84.60
7530;DHT22;3806;52.270;10.544;2022-07-22T15:46:17;23.20;84.50
7530;DHT22;3806;52.270;10.544;2022-07-22T15:48:42;23.20;84.10
7530;DHT22;3806;52.270;10.544;2022-07-22T15:51:09;23.10;83.60
7530;DHT22;3806;52.270;10.544;2022-07-22T15:53:35;23.10;83.70
7530;DHT22;3806;52.270;10.544;2022-07-22T15:56:01;23.00;83.80
7530;DHT22;3806;52.270;10.544;2022-07-22T15:58:28;23.00;83.90
7530;DHT22;3806;52.270;10.544;2022-07-22T16:01:12;23.00;84.00
7530;DHT22;3806;52.270;10.544;2022-07-22T16:03:38;23.10;84.00
7530;DHT22;3806;52.270;10.544;2022-07-22T16:06:03;23.10;83.60